Taiseimaru — JL6483 — position and weather

sailwx.info

Track history (hours):
 
Tides and Currents Weather Stations Pressure Air Temp Water Temp Dewpoint Dewpoint Depression Visibility Wind Speed Wind Dir Waves Ship Positions

Taiseimaru

Last reported at 2016-May-18 17:26 UTC. Time now 2016-May-26 18:28 UTC.
Position N 34°34' E 138°37'.
Warning: this ship's position is 8 days out of date.

Length 84 m; draft 4.7 m.

Type: Cargo ship. MMSI: 431500568.

Date/timePositionNaut miles runAvg speedWind from/ knotsBaromVisibWave heightAir tempDewpointWater temp
2016-May-18 17:26N 34°34' E 138°37'4410.5
2016-May-18 13:16N 34°59' E 139°21'810.5
2016-May-18 12:32N 35°02' E 139°29'1111.0
2016-May-18 11:33N 35°07' E 139°41'1010.4
2016-May-18 10:34N 35°17' E 139°45'7 6.8
2016-May-18 09:33N 35°22' E 139°39'0 0.0
2016-May-18 08:32N 35°22' E 139°39'0 0.0
2016-May-18 07:32N 35°22' E 139°39'0 0.0
2016-May-18 06:32N 35°22' E 139°39'0 0.0
2016-May-18 05:32N 35°22' E 139°39'0 0.0
2016-May-18 04:32N 35°22' E 139°39'0 0.0
2016-May-18 03:32N 35°22' E 139°39'0 0.0
2016-May-18 02:29N 35°22' E 139°39'0 0.0
2016-May-18 01:25N 35°22' E 139°39'0 0.0
2016-May-18 00:31N 35°22' E 139°39'0 0.0
2016-May-17 23:31N 35°22' E 139°39'0 0.0
2016-May-17 22:31N 35°22' E 139°39'2 1.6
2016-May-17 21:33N 35°23' E 139°41'4 3.7
2016-May-17 20:31N 35°24' E 139°45'0 0.0
2016-May-17 19:31N 35°24' E 139°45'0 0.0
2016-May-17 18:31N 35°24' E 139°45'0 0.0
2016-May-17 17:31N 35°24' E 139°45'0 0.0
2016-May-17 16:34N 35°24' E 139°45'0 0.0
2016-May-17 15:33N 35°24' E 139°45'0 0.0
2016-May-17 14:33N 35°24' E 139°45'0 0.0
2016-May-17 13:33N 35°24' E 139°45'0 0.0
2016-May-17 12:33N 35°24' E 139°45'0 0.0
2016-May-17 11:33N 35°24' E 139°45'0 0.0
2016-May-17 10:33N 35°24' E 139°45'0 0.0
2016-May-17 09:30N 35°24' E 139°45'0 0.1
2016-May-17 08:33N 35°24' E 139°45'0 0.0
2016-May-17 07:33N 35°24' E 139°45'0 0.1
2016-May-17 06:33N 35°24' E 139°45'0 0.0
2016-May-17 05:33N 35°24' E 139°45'0 0.1
2016-May-17 04:33N 35°24' E 139°45'0 0.0
2016-May-17 03:33N 35°24' E 139°45'0 0.0
2016-May-17 02:33N 35°24' E 139°45'0 0.0
2016-May-17 01:33N 35°24' E 139°45'0 0.0
2016-May-17 00:33N 35°24' E 139°45'0 0.0
2016-May-16 23:33N 35°24' E 139°45'0 0.0
2016-May-16 22:33N 35°24' E 139°45'0 0.0
2016-May-16 21:34N 35°24' E 139°45'0 0.0
2016-May-16 20:33N 35°24' E 139°45'0 0.0
2016-May-16 19:33N 35°24' E 139°45'0 0.0
2016-May-16 18:34N 35°24' E 139°45'0 0.0
2016-May-16 17:33N 35°24' E 139°45'0 0.0
2016-May-16 16:33N 35°24' E 139°45'0 0.0
2016-May-16 15:33N 35°24' E 139°45'0 0.0
2016-May-16 14:33N 35°24' E 139°45'0 0.0
2016-May-16 13:33N 35°24' E 139°45'0 0.0
2016-May-16 12:33N 35°24' E 139°45'0 0.0
2016-May-16 11:33N 35°24' E 139°45'0 0.0
2016-May-16 10:33N 35°24' E 139°45'0 0.0
2016-May-16 09:33N 35°24' E 139°45'0 0.0
2016-May-16 08:34N 35°24' E 139°45'0 0.0
2016-May-16 07:33N 35°24' E 139°45'0 0.0
2016-May-16 06:33N 35°24' E 139°45'0 0.0
2016-May-16 05:33N 35°24' E 139°45'0 0.0
2016-May-16 04:33N 35°24' E 139°45'0 0.0
2016-May-16 03:33N 35°24' E 139°45'0 0.0
2016-May-16 02:33N 35°24' E 139°45'0 0.0
2016-May-16 01:33N 35°24' E 139°45'1 1.4
2016-May-16 00:34N 35°25' E 139°46'5 5.2
2016-May-15 23:32N 35°30' E 139°50'0 0.0
2016-May-15 22:32N 35°30' E 139°50'0 0.0
2016-May-15 21:29N 35°30' E 139°50'0 0.1
2016-May-15 20:32N 35°30' E 139°50'0 0.0
2016-May-15 19:32N 35°30' E 139°50'0 0.0
2016-May-15 18:29N 35°30' E 139°50'0 0.0
2016-May-15 17:32N 35°30' E 139°50'0 0.0
2016-May-15 16:32N 35°30' E 139°50'0 0.0
2016-May-15 15:32N 35°30' E 139°50'0 0.0
2016-May-15 14:34N 35°30' E 139°50'8 8.1
2016-May-15 13:33N 35°22' E 139°52'0 0.1
2016-May-15 12:32N 35°22' E 139°52'0 0.0
2016-May-15 11:25N 35°22' E 139°52'0 0.0
2016-May-15 10:31N 35°22' E 139°52'0 0.0
2016-May-15 09:31N 35°22' E 139°52'0 0.0
2016-May-15 08:31N 35°22' E 139°52'1 1.1
2016-May-15 07:33N 35°22' E 139°51'7 7.0
2016-May-15 06:33N 35°18' E 139°45'10 9.5
2016-May-15 05:33N 35°09' E 139°46'1110.9
2016-May-15 04:32N 34°58' E 139°43'12 9.3
2016-May-15 03:15N 34°53' E 139°57'710.1
2016-May-15 02:33N 34°57' E 140°04'1210.8
2016-May-15 01:29N 35°03' E 140°16'1110.3
2016-May-15 00:27N 35°10' E 140°26'3511.5
2016-May-14 21:25N 35°38' E 140°52'  
Track history (hours):
 
Tides and Currents Weather Stations Pressure Air Temp Water Temp Dewpoint Dewpoint Depression Visibility Wind Speed Wind Dir Waves Ship Positions

Taiseimaru

Last reported at 2016-May-18 17:26 UTC. Time now 2016-May-26 18:28 UTC.
Position N 34°34' E 138°37'.
Warning: this ship's position is 8 days out of date.

Length 84 m; draft 4.7 m.

Type: Cargo ship. MMSI: 431500568.

Date/timePositionNaut miles runAvg speedWind from/ knotsBaromVisibWave heightAir tempDewpointWater temp
2016-May-18 17:26N 34°34' E 138°37'4410.5
2016-May-18 13:16N 34°59' E 139°21'810.5
2016-May-18 12:32N 35°02' E 139°29'1111.0
2016-May-18 11:33N 35°07' E 139°41'1010.4
2016-May-18 10:34N 35°17' E 139°45'7 6.8
2016-May-18 09:33N 35°22' E 139°39'0 0.0
2016-May-18 08:32N 35°22' E 139°39'0 0.0
2016-May-18 07:32N 35°22' E 139°39'0 0.0
2016-May-18 06:32N 35°22' E 139°39'0 0.0
2016-May-18 05:32N 35°22' E 139°39'0 0.0
2016-May-18 04:32N 35°22' E 139°39'0 0.0
2016-May-18 03:32N 35°22' E 139°39'0 0.0
2016-May-18 02:29N 35°22' E 139°39'0 0.0
2016-May-18 01:25N 35°22' E 139°39'0 0.0
2016-May-18 00:31N 35°22' E 139°39'0 0.0
2016-May-17 23:31N 35°22' E 139°39'0 0.0
2016-May-17 22:31N 35°22' E 139°39'2 1.6
2016-May-17 21:33N 35°23' E 139°41'4 3.7
2016-May-17 20:31N 35°24' E 139°45'0 0.0
2016-May-17 19:31N 35°24' E 139°45'0 0.0
2016-May-17 18:31N 35°24' E 139°45'0 0.0
2016-May-17 17:31N 35°24' E 139°45'0 0.0
2016-May-17 16:34N 35°24' E 139°45'0 0.0
2016-May-17 15:33N 35°24' E 139°45'0 0.0
2016-May-17 14:33N 35°24' E 139°45'0 0.0
2016-May-17 13:33N 35°24' E 139°45'0 0.0
2016-May-17 12:33N 35°24' E 139°45'0 0.0
2016-May-17 11:33N 35°24' E 139°45'0 0.0
2016-May-17 10:33N 35°24' E 139°45'0 0.0
2016-May-17 09:30N 35°24' E 139°45'0 0.1
2016-May-17 08:33N 35°24' E 139°45'0 0.0
2016-May-17 07:33N 35°24' E 139°45'0 0.1
2016-May-17 06:33N 35°24' E 139°45'0 0.0
2016-May-17 05:33N 35°24' E 139°45'0 0.1
2016-May-17 04:33N 35°24' E 139°45'0 0.0
2016-May-17 03:33N 35°24' E 139°45'0 0.0
2016-May-17 02:33N 35°24' E 139°45'0 0.0
2016-May-17 01:33N 35°24' E 139°45'0 0.0
2016-May-17 00:33N 35°24' E 139°45'0 0.0
2016-May-16 23:33N 35°24' E 139°45'0 0.0
2016-May-16 22:33N 35°24' E 139°45'0 0.0
2016-May-16 21:34N 35°24' E 139°45'0 0.0
2016-May-16 20:33N 35°24' E 139°45'0 0.0
2016-May-16 19:33N 35°24' E 139°45'0 0.0
2016-May-16 18:34N 35°24' E 139°45'0 0.0
2016-May-16 17:33N 35°24' E 139°45'0 0.0
2016-May-16 16:33N 35°24' E 139°45'0 0.0
2016-May-16 15:33N 35°24' E 139°45'0 0.0
2016-May-16 14:33N 35°24' E 139°45'0 0.0
2016-May-16 13:33N 35°24' E 139°45'0 0.0
2016-May-16 12:33N 35°24' E 139°45'0 0.0
2016-May-16 11:33N 35°24' E 139°45'0 0.0
2016-May-16 10:33N 35°24' E 139°45'0 0.0
2016-May-16 09:33N 35°24' E 139°45'0 0.0
2016-May-16 08:34N 35°24' E 139°45'0 0.0
2016-May-16 07:33N 35°24' E 139°45'0 0.0
2016-May-16 06:33N 35°24' E 139°45'0 0.0
2016-May-16 05:33N 35°24' E 139°45'0 0.0
2016-May-16 04:33N 35°24' E 139°45'0 0.0
2016-May-16 03:33N 35°24' E 139°45'0 0.0
2016-May-16 02:33N 35°24' E 139°45'0 0.0
2016-May-16 01:33N 35°24' E 139°45'1 1.4
2016-May-16 00:34N 35°25' E 139°46'5 5.2
2016-May-15 23:32N 35°30' E 139°50'0 0.0
2016-May-15 22:32N 35°30' E 139°50'0 0.0
2016-May-15 21:29N 35°30' E 139°50'0 0.1
2016-May-15 20:32N 35°30' E 139°50'0 0.0
2016-May-15 19:32N 35°30' E 139°50'0 0.0
2016-May-15 18:29N 35°30' E 139°50'0 0.0
2016-May-15 17:32N 35°30' E 139°50'0 0.0
2016-May-15 16:32N 35°30' E 139°50'0 0.0
2016-May-15 15:32N 35°30' E 139°50'0 0.0
2016-May-15 14:34N 35°30' E 139°50'8 8.1
2016-May-15 13:33N 35°22' E 139°52'0 0.1
2016-May-15 12:32N 35°22' E 139°52'0 0.0
2016-May-15 11:25N 35°22' E 139°52'0 0.0
2016-May-15 10:31N 35°22' E 139°52'0 0.0
2016-May-15 09:31N 35°22' E 139°52'0 0.0
2016-May-15 08:31N 35°22' E 139°52'1 1.1
2016-May-15 07:33N 35°22' E 139°51'7 7.0
2016-May-15 06:33N 35°18' E 139°45'10 9.5
2016-May-15 05:33N 35°09' E 139°46'1110.9
2016-May-15 04:32N 34°58' E 139°43'12 9.3
2016-May-15 03:15N 34°53' E 139°57'710.1
2016-May-15 02:33N 34°57' E 140°04'1210.8
2016-May-15 01:29N 35°03' E 140°16'1110.3
2016-May-15 00:27N 35°10' E 140°26'3511.5
2016-May-14 21:25N 35°38' E 140°52'  

Dump ship's entire track history